Time;durP1;ratioP1;P1;durP2;ratioP2;P2;SDS_P1;SDS_P2;PMS_P1;PMS_P2;Temp;Humidity;BMP_temperature;BMP_pressure;BME280_temperature;BME280_humidity;BME280_pressure;Samples;Min_cycle;Max_cycle;Signal;HPM_P1;HPM_P2
2023/11/03 00:00:31;;;;;;;;;;;19.70;54.30;;;;;;1596071;73;1127;-76
2023/11/03 00:02:32;;;;;;;;;;;19.70;54.20;;;;;;1598156;73;1918;-78
2023/11/03 00:04:39;;;;;;;;;;;19.70;54.30;;;;;;1600979;73;709;-78
2023/11/03 00:06:43;;;;;;;;;;;19.70;54.20;;;;;;1604466;73;957;-78
2023/11/03 00:08:44;;;;;;;;;;;19.70;54.20;;;;;;1599129;73;676;-78
2023/11/03 00:10:46;;;;;;;;;;;19.70;54.20;;;;;;1597817;73;1137;-78
2023/11/03 00:12:48;;;;;;;;;;;19.70;54.30;;;;;;1596670;73;753;-75
2023/11/03 00:14:50;;;;;;;;;;;19.70;54.20;;;;;;1603486;73;750;-78
2023/11/03 00:16:52;;;;;;;;;;;19.70;54.20;;;;;;1600241;73;727;-78
2023/11/03 00:18:57;;;;;;;;;;;19.70;54.20;;;;;;1593379;73;695;-77
2023/11/03 00:20:57;;;;;;;;;;;19.70;54.30;;;;;;1594274;73;1936;-78
2023/11/03 00:23:00;;;;;;;;;;;19.70;54.20;;;;;;1603352;73;762;-77
2023/11/03 00:25:02;;;;;;;;;;;19.70;54.20;;;;;;1608215;73;693;-76
2023/11/03 00:27:04;;;;;;;;;;;19.70;54.20;;;;;;1605974;72;731;-78
2023/11/03 00:29:07;;;;;;;;;;;19.70;54.30;;;;;;1592598;73;775;-78
2023/11/03 00:31:11;;;;;;;;;;;19.70;54.20;;;;;;1599350;73;1140;-78
2023/11/03 00:33:14;;;;;;;;;;;19.70;54.20;;;;;;1594782;73;1119;-78
2023/11/03 00:35:16;;;;;;;;;;;19.70;54.20;;;;;;1565937;74;713;-77
2023/11/03 00:37:18;;;;;;;;;;;19.70;54.20;;;;;;1597995;73;747;-77
2023/11/03 00:39:20;;;;;;;;;;;19.70;54.20;;;;;;1607179;73;715;-78
2023/11/03 00:41:22;;;;;;;;;;;19.70;54.20;;;;;;1607293;73;1930;-77
2023/11/03 00:43:24;;;;;;;;;;;19.70;54.20;;;;;;1605304;73;721;-78
2023/11/03 00:45:26;;;;;;;;;;;19.70;54.20;;;;;;1597863;73;788;-77
2023/11/03 00:47:28;;;;;;;;;;;20.00;54.30;;;;;;1597143;73;888;-78
2023/11/03 00:49:30;;;;;;;;;;;19.70;54.20;;;;;;1599349;73;719;-78
2023/11/03 00:51:32;;;;;;;;;;;19.70;54.30;;;;;;1597246;73;1132;-77
2023/11/03 00:53:34;;;;;;;;;;;19.70;54.20;;;;;;1594582;72;802;-78
2023/11/03 00:55:35;;;;;;;;;;;19.70;54.20;;;;;;1596200;73;716;-78
2023/11/03 00:57:39;;;;;;;;;;;19.70;54.30;;;;;;1600887;73;737;-77
2023/11/03 00:59:41;;;;;;;;;;;19.70;54.30;;;;;;1589221;73;1137;-76
2023/11/03 01:01:45;;;;;;;;;;;19.70;54.20;;;;;;1604068;73;1924;-77
2023/11/03 01:03:47;;;;;;;;;;;19.70;54.30;;;;;;1600051;73;1375;-77
2023/11/03 01:05:49;;;;;;;;;;;19.90;54.40;;;;;;1593464;73;669;-77
2023/11/03 01:07:52;;;;;;;;;;;19.70;54.30;;;;;;1597181;73;696;-78
2023/11/03 01:09:54;;;;;;;;;;;19.70;54.30;;;;;;1588964;72;1128;-78
2023/11/03 01:11:56;;;;;;;;;;;19.70;54.30;;;;;;1596944;72;713;-77
2023/11/03 01:13:59;;;;;;;;;;;19.70;54.20;;;;;;1596221;73;794;-77
2023/11/03 01:16:01;;;;;;;;;;;19.70;54.30;;;;;;1605239;73;742;-78
2023/11/03 01:18:05;;;;;;;;;;;19.90;54.40;;;;;;1591180;73;1580;-78
2023/11/03 01:20:12;;;;;;;;;;;19.70;54.30;;;;;;1595286;73;1090;-77
2023/11/03 01:22:10;;;;;;;;;;;19.70;54.30;;;;;;1595492;73;1929;-77
2023/11/03 01:24:12;;;;;;;;;;;19.70;54.30;;;;;;1589045;73;694;-78
2023/11/03 01:26:15;;;;;;;;;;;19.70;54.30;;;;;;1594400;73;709;-78
2023/11/03 01:28:17;;;;;;;;;;;19.70;54.30;;;;;;1600259;73;679;-76
2023/11/03 01:30:20;;;;;;;;;;;19.70;54.30;;;;;;1588866;73;1136;-78
2023/11/03 01:32:22;;;;;;;;;;;19.70;54.30;;;;;;1595508;72;819;-77
2023/11/03 01:34:24;;;;;;;;;;;19.80;54.20;;;;;;1598327;73;693;-78
2023/11/03 01:36:26;;;;;;;;;;;19.70;54.30;;;;;;1603165;73;654;-76
2023/11/03 01:38:27;;;;;;;;;;;19.70;54.30;;;;;;1604622;73;828;-77
2023/11/03 01:40:29;;;;;;;;;;;19.70;54.20;;;;;;1599193;72;1180;-77
2023/11/03 01:42:31;;;;;;;;;;;19.70;54.30;;;;;;1602600;73;1937;-77
2023/11/03 01:44:34;;;;;;;;;;;19.70;54.30;;;;;;1603184;72;844;-77
2023/11/03 01:46:36;;;;;;;;;;;19.70;54.30;;;;;;1594865;73;778;-76
2023/11/03 01:48:39;;;;;;;;;;;19.70;54.30;;;;;;1593779;73;690;-78
2023/11/03 01:50:42;;;;;;;;;;;19.70;54.20;;;;;;1600631;72;1131;-78
2023/11/03 01:52:44;;;;;;;;;;;19.70;54.30;;;;;;1596665;72;689;-78
2023/11/03 01:54:46;;;;;;;;;;;19.70;54.20;;;;;;1593162;72;761;-77
2023/11/03 01:56:48;;;;;;;;;;;19.70;54.30;;;;;;1598616;73;733;-79
2023/11/03 01:58:50;;;;;;;;;;;19.70;54.20;;;;;;1604741;73;729;-78
2023/11/03 02:00:53;;;;;;;;;;;19.70;54.30;;;;;;1594107;73;1131;-77
2023/11/03 02:02:55;;;;;;;;;;;19.70;54.30;;;;;;1598516;73;1913;-78
2023/11/03 02:04:57;;;;;;;;;;;19.70;54.30;;;;;;1603082;73;844;-78
2023/11/03 02:06:58;;;;;;;;;;;19.70;54.30;;;;;;1591292;73;730;-77
2023/11/03 02:09:00;;;;;;;;;;;19.70;54.30;;;;;;1590967;73;770;-77
2023/11/03 02:11:02;;;;;;;;;;;19.60;54.20;;;;;;1595206;73;1110;-76
2023/11/03 02:13:04;;;;;;;;;;;19.70;54.30;;;;;;1600609;73;1546;-77
2023/11/03 02:15:06;;;;;;;;;;;19.70;54.20;;;;;;1599798;72;773;-76
2023/11/03 02:17:08;;;;;;;;;;;19.70;54.20;;;;;;1590339;73;673;-77
2023/11/03 02:19:10;;;;;;;;;;;19.70;54.20;;;;;;1599373;72;711;-77
2023/11/03 02:21:13;;;;;;;;;;;19.70;54.20;;;;;;1598201;73;1147;-75
2023/11/03 02:23:15;;;;;;;;;;;19.70;54.20;;;;;;1603244;72;1910;-76
2023/11/03 02:25:16;;;;;;;;;;;19.70;54.20;;;;;;1603617;73;729;-78
2023/11/03 02:27:19;;;;;;;;;;;19.70;54.30;;;;;;1598045;73;712;-78
2023/11/03 02:29:21;;;;;;;;;;;19.70;54.30;;;;;;1592993;72;728;-78
2023/11/03 02:31:24;;;;;;;;;;;19.70;54.30;;;;;;1603142;73;1097;-76
2023/11/03 02:33:26;;;;;;;;;;;19.70;54.30;;;;;;1594685;72;758;-76
2023/11/03 02:35:28;;;;;;;;;;;19.70;54.20;;;;;;1595193;73;736;-77
2023/11/03 02:37:30;;;;;;;;;;;19.60;54.20;;;;;;1592567;73;725;-78
2023/11/03 02:39:31;;;;;;;;;;;19.70;54.20;;;;;;1606454;73;711;-78
2023/11/03 02:41:33;;;;;;;;;;;19.60;54.20;;;;;;1589991;73;1943;-77
2023/11/03 02:43:35;;;;;;;;;;;19.70;54.30;;;;;;1597307;73;686;-78
2023/11/03 02:45:37;;;;;;;;;;;19.70;54.30;;;;;;1601462;72;708;-77
2023/11/03 02:47:39;;;;;;;;;;;19.70;54.30;;;;;;1600893;73;607;-77
2023/11/03 02:49:41;;;;;;;;;;;19.70;54.20;;;;;;1605733;72;1132;-78
2023/11/03 02:51:43;;;;;;;;;;;19.70;54.30;;;;;;1597301;73;750;-78
2023/11/03 02:53:44;;;;;;;;;;;19.60;54.10;;;;;;1597432;73;655;-78
2023/11/03 02:55:46;;;;;;;;;;;19.70;54.30;;;;;;1594265;73;690;-77
2023/11/03 02:57:48;;;;;;;;;;;19.70;54.20;;;;;;1601985;73;762;-78
2023/11/03 02:59:50;;;;;;;;;;;19.70;54.30;;;;;;1606678;73;1123;-78
2023/11/03 03:01:52;;;;;;;;;;;19.70;54.30;;;;;;1599744;73;1923;-77
2023/11/03 03:03:54;;;;;;;;;;;19.70;54.40;;;;;;1603063;73;709;-77
2023/11/03 03:05:56;;;;;;;;;;;19.70;54.30;;;;;;1605849;73;725;-78
2023/11/03 03:07:58;;;;;;;;;;;19.70;54.30;;;;;;1607106;73;744;-77
2023/11/03 03:09:59;;;;;;;;;;;19.70;54.30;;;;;;1593300;73;1328;-77
2023/11/03 03:12:01;;;;;;;;;;;19.60;54.20;;;;;;1596077;73;753;-77
2023/11/03 03:14:03;;;;;;;;;;;19.70;54.30;;;;;;1597210;72;793;-78
2023/11/03 03:16:05;;;;;;;;;;;19.70;54.30;;;;;;1592754;72;680;-76
2023/11/03 03:18:08;;;;;;;;;;;19.70;54.30;;;;;;1602364;73;648;-78
2023/11/03 03:20:10;;;;;;;;;;;19.70;54.30;;;;;;1594435;73;1152;-77
2023/11/03 03:22:12;;;;;;;;;;;19.70;54.30;;;;;;1591050;73;1943;-76
2023/11/03 03:24:14;;;;;;;;;;;19.70;54.30;;;;;;1597213;72;661;-78
2023/11/03 03:26:16;;;;;;;;;;;19.70;54.20;;;;;;1596098;73;746;-77
2023/11/03 03:28:18;;;;;;;;;;;19.60;54.10;;;;;;1595182;73;700;-78
2023/11/03 03:30:20;;;;;;;;;;;19.70;54.30;;;;;;1596593;73;1133;-78
2023/11/03 03:32:22;;;;;;;;;;;19.70;54.30;;;;;;1600312;72;672;-77
2023/11/03 03:34:24;;;;;;;;;;;19.70;54.30;;;;;;1602239;73;737;-78
2023/11/03 03:36:25;;;;;;;;;;;19.70;54.40;;;;;;1598210;73;679;-78
2023/11/03 03:38:27;;;;;;;;;;;19.60;54.20;;;;;;1589855;73;784;-78
2023/11/03 03:40:29;;;;;;;;;;;19.70;54.30;;;;;;1596125;73;1118;-78
2023/11/03 03:42:31;;;;;;;;;;;19.60;54.30;;;;;;1603255;73;1918;-78
2023/11/03 03:44:33;;;;;;;;;;;19.70;54.40;;;;;;1603728;73;701;-78
2023/11/03 03:46:38;;;;;;;;;;;19.70;54.40;;;;;;1598055;73;741;-78
2023/11/03 03:48:40;;;;;;;;;;;19.70;54.40;;;;;;1596328;72;740;-77
2023/11/03 03:50:42;;;;;;;;;;;19.70;54.40;;;;;;1597008;72;1141;-78
2023/11/03 03:52:43;;;;;;;;;;;19.70;54.40;;;;;;1597971;72;635;-78
2023/11/03 03:54:45;;;;;;;;;;;19.70;54.40;;;;;;1594103;73;692;-78
2023/11/03 03:56:47;;;;;;;;;;;19.70;54.40;;;;;;1594040;72;720;-78
2023/11/03 03:58:49;;;;;;;;;;;19.70;54.40;;;;;;1601982;72;706;-78
2023/11/03 04:00:51;;;;;;;;;;;19.70;54.50;;;;;;1600141;73;1147;-78
2023/11/03 04:02:53;;;;;;;;;;;19.70;54.40;;;;;;1587487;73;1906;-77
2023/11/03 04:04:55;;;;;;;;;;;19.70;54.40;;;;;;1595181;73;696;-78
2023/11/03 04:06:57;;;;;;;;;;;19.70;54.40;;;;;;1596960;73;1475;-77
2023/11/03 04:08:59;;;;;;;;;;;19.70;54.50;;;;;;1607762;73;712;-79
2023/11/03 04:11:01;;;;;;;;;;;19.70;54.50;;;;;;1594950;73;1123;-78
2023/11/03 04:13:03;;;;;;;;;;;19.70;54.50;;;;;;1593542;73;733;-78
2023/11/03 04:15:05;;;;;;;;;;;20.00;54.50;;;;;;1602143;72;771;-77
2023/11/03 04:17:07;;;;;;;;;;;19.70;54.40;;;;;;1599595;73;671;-78
2023/11/03 04:19:10;;;;;;;;;;;19.70;54.50;;;;;;1602404;73;707;-77
2023/11/03 04:21:11;;;;;;;;;;;19.70;54.40;;;;;;1588948;72;1141;-78
2023/11/03 04:23:13;;;;;;;;;;;19.70;54.40;;;;;;1596403;72;1960;-77
2023/11/03 04:25:15;;;;;;;;;;;19.70;54.40;;;;;;1605325;73;733;-77
2023/11/03 04:27:17;;;;;;;;;;;19.70;54.40;;;;;;1603821;73;706;-77
2023/11/03 04:29:19;;;;;;;;;;;19.70;54.40;;;;;;1600749;73;779;-77
2023/11/03 04:31:21;;;;;;;;;;;19.70;54.40;;;;;;1603120;73;1147;-76
2023/11/03 04:33:23;;;;;;;;;;;19.70;54.40;;;;;;1602030;73;720;-78
2023/11/03 04:35:25;;;;;;;;;;;19.70;54.40;;;;;;1606775;73;653;-78
2023/11/03 04:37:27;;;;;;;;;;;19.70;54.40;;;;;;1597287;73;781;-78
2023/11/03 04:39:29;;;;;;;;;;;20.00;54.50;;;;;;1600384;72;746;-78
2023/11/03 04:41:31;;;;;;;;;;;19.60;54.20;;;;;;1602927;73;1168;-76
2023/11/03 04:43:35;;;;;;;;;;;19.70;54.40;;;;;;1596227;73;1932;-78
2023/11/03 04:45:36;;;;;;;;;;;19.70;54.40;;;;;;1595268;73;1578;-77
2023/11/03 04:47:38;;;;;;;;;;;19.60;54.20;;;;;;1602960;73;670;-77
2023/11/03 04:49:40;;;;;;;;;;;19.70;54.40;;;;;;1601835;73;1133;-78
2023/11/03 04:51:42;;;;;;;;;;;19.60;54.20;;;;;;1593232;73;696;-78
2023/11/03 04:53:44;;;;;;;;;;;19.70;54.30;;;;;;1600369;73;731;-78
2023/11/03 04:55:46;;;;;;;;;;;19.70;54.40;;;;;;1600940;73;707;-78
2023/11/03 04:57:47;;;;;;;;;;;19.70;54.40;;;;;;1602683;73;728;-78
2023/11/03 04:59:49;;;;;;;;;;;19.70;54.40;;;;;;1606453;73;1238;-77
2023/11/03 05:01:51;;;;;;;;;;;19.70;54.30;;;;;;1589535;73;1349;-78
2023/11/03 05:03:53;;;;;;;;;;;19.70;54.40;;;;;;1602438;73;1944;-78
2023/11/03 05:05:55;;;;;;;;;;;19.80;54.40;;;;;;1597723;73;699;-78
2023/11/03 05:07:57;;;;;;;;;;;20.00;54.40;;;;;;1599332;73;663;-77
2023/11/03 05:09:59;;;;;;;;;;;19.70;54.40;;;;;;1597671;73;1167;-78
2023/11/03 05:12:01;;;;;;;;;;;19.70;54.30;;;;;;1603651;73;730;-76
2023/11/03 05:14:02;;;;;;;;;;;19.70;54.30;;;;;;1592164;73;965;-78
2023/11/03 05:16:05;;;;;;;;;;;19.70;54.30;;;;;;1587396;73;810;-78
2023/11/03 05:18:10;;;;;;;;;;;19.70;54.30;;;;;;1601491;73;712;-77
2023/11/03 05:20:11;;;;;;;;;;;19.70;54.30;;;;;;1599038;73;1616;-78
2023/11/03 05:22:13;;;;;;;;;;;19.70;54.30;;;;;;1605669;73;645;-78
2023/11/03 05:24:15;;;;;;;;;;;19.70;54.40;;;;;;1590738;72;1934;-78
2023/11/03 05:26:17;;;;;;;;;;;19.70;54.40;;;;;;1594324;73;726;-78
2023/11/03 05:28:18;;;;;;;;;;;19.70;54.30;;;;;;1599206;73;712;-78
2023/11/03 05:30:21;;;;;;;;;;;19.70;54.30;;;;;;1596121;73;1145;-78
2023/11/03 05:32:23;;;;;;;;;;;19.70;54.40;;;;;;1599755;73;713;-78
2023/11/03 05:34:25;;;;;;;;;;;19.60;54.20;;;;;;1599586;73;710;-78
2023/11/03 05:36:27;;;;;;;;;;;20.00;54.40;;;;;;1591016;72;732;-76
2023/11/03 05:38:30;;;;;;;;;;;19.70;54.40;;;;;;1593921;73;728;-78
2023/11/03 05:40:32;;;;;;;;;;;19.60;54.20;;;;;;1603509;73;1191;-78
2023/11/03 05:42:34;;;;;;;;;;;19.70;54.40;;;;;;1603320;73;968;-78
2023/11/03 05:44:36;;;;;;;;;;;19.70;54.40;;;;;;1600483;73;1944;-78
2023/11/03 05:46:38;;;;;;;;;;;20.00;54.40;;;;;;1590273;73;715;-77
2023/11/03 05:48:40;;;;;;;;;;;19.70;54.40;;;;;;1590158;73;821;-78
2023/11/03 05:50:42;;;;;;;;;;;19.70;54.30;;;;;;1597061;73;1152;-78
2023/11/03 05:52:44;;;;;;;;;;;19.70;54.40;;;;;;1593783;73;759;-76
2023/11/03 05:54:46;;;;;;;;;;;19.70;54.30;;;;;;1600725;73;705;-76
2023/11/03 05:56:48;;;;;;;;;;;19.60;54.20;;;;;;1598606;72;706;-78
2023/11/03 05:58:51;;;;;;;;;;;19.60;54.20;;;;;;1596541;73;1541;-78
2023/11/03 06:00:54;;;;;;;;;;;19.70;54.30;;;;;;1603008;73;1148;-78
2023/11/03 06:02:56;;;;;;;;;;;19.60;54.20;;;;;;1601279;73;1921;-77
2023/11/03 06:04:58;;;;;;;;;;;19.60;54.20;;;;;;1598487;73;727;-78
2023/11/03 06:07:05;;;;;;;;;;;19.70;54.20;;;;;;1591298;73;708;-78
2023/11/03 06:09:05;;;;;;;;;;;19.70;54.30;;;;;;1596732;73;1088;-78
2023/11/03 06:11:07;;;;;;;;;;;19.70;54.30;;;;;;1593990;73;1137;-76
2023/11/03 06:13:09;;;;;;;;;;;20.00;54.40;;;;;;1598150;73;673;-78
2023/11/03 06:15:13;;;;;;;;;;;19.70;54.30;;;;;;1597262;72;665;-78
2023/11/03 06:17:14;;;;;;;;;;;19.70;54.30;;;;;;1605180;73;793;-78
2023/11/03 06:19:16;;;;;;;;;;;19.70;54.30;;;;;;1605900;73;746;-79
2023/11/03 06:21:18;;;;;;;;;;;19.70;54.20;;;;;;1589356;73;1070;-79
2023/11/03 06:23:20;;;;;;;;;;;19.70;54.20;;;;;;1595154;72;1930;-78
2023/11/03 06:25:22;;;;;;;;;;;19.70;54.20;;;;;;1600732;72;721;-78
2023/11/03 06:27:24;;;;;;;;;;;19.70;54.20;;;;;;1595388;73;713;-78
2023/11/03 06:29:26;;;;;;;;;;;19.70;54.20;;;;;;1602487;73;714;-78
2023/11/03 06:31:31;;;;;;;;;;;20.00;54.30;;;;;;1594736;73;1131;-78
2023/11/03 06:33:31;;;;;;;;;;;19.60;54.20;;;;;;1593071;73;1144;-78
2023/11/03 06:35:34;;;;;;;;;;;19.70;54.20;;;;;;1594328;72;710;-78
2023/11/03 06:37:35;;;;;;;;;;;19.70;54.20;;;;;;1590259;72;756;-78
2023/11/03 06:39:38;;;;;;;;;;;20.10;54.40;;;;;;1597480;73;1139;-78
2023/11/03 06:41:39;;;;;;;;;;;20.10;54.40;;;;;;1599116;73;661;-77
2023/11/03 06:43:42;;;;;;;;;;;19.70;54.20;;;;;;1598572;73;1941;-78
2023/11/03 06:45:44;;;;;;;;;;;20.10;54.40;;;;;;1596480;73;700;-78
2023/11/03 06:47:48;;;;;;;;;;;19.70;54.20;;;;;;1600066;73;597;-77
2023/11/03 06:49:50;;;;;;;;;;;19.70;54.20;;;;;;1602326;72;1943;-77
2023/11/03 06:51:51;;;;;;;;;;;19.70;54.20;;;;;;1588034;72;721;-77
2023/11/03 06:53:53;;;;;;;;;;;19.70;54.20;;;;;;1596763;73;579;-78
2023/11/03 06:55:55;;;;;;;;;;;19.70;54.20;;;;;;1601618;73;1691;-78
2023/11/03 06:57:57;;;;;;;;;;;19.60;54.00;;;;;;1595887;72;635;-78
2023/11/03 06:59:59;;;;;;;;;;;19.60;54.00;;;;;;1598560;73;1143;-78
2023/11/03 07:02:01;;;;;;;;;;;19.60;54.00;;;;;;1592484;73;721;-77
2023/11/03 07:04:06;;;;;;;;;;;19.90;54.20;;;;;;1592839;73;1930;-78
2023/11/03 07:06:08;;;;;;;;;;;20.10;54.40;;;;;;1599200;73;1124;-78
2023/11/03 07:08:09;;;;;;;;;;;19.70;54.20;;;;;;1603292;73;677;-79
2023/11/03 07:10:11;;;;;;;;;;;19.70;54.20;;;;;;1600815;73;1155;-78
2023/11/03 07:12:13;;;;;;;;;;;19.70;54.20;;;;;;1596723;73;649;-78
2023/11/03 07:14:15;;;;;;;;;;;19.70;54.20;;;;;;1592218;73;697;-78
2023/11/03 07:16:17;;;;;;;;;;;19.70;54.20;;;;;;1598163;73;714;-78
2023/11/03 07:18:19;;;;;;;;;;;19.60;54.00;;;;;;1593410;73;736;-78
2023/11/03 07:20:22;;;;;;;;;;;19.70;54.20;;;;;;1595979;73;1119;-78
2023/11/03 07:22:24;;;;;;;;;;;20.10;54.40;;;;;;1592456;72;639;-76
2023/11/03 07:24:26;;;;;;;;;;;19.60;54.00;;;;;;1603608;73;1906;-78
2023/11/03 07:26:30;;;;;;;;;;;19.70;54.20;;;;;;1600978;73;644;-78
2023/11/03 07:28:31;;;;;;;;;;;19.60;54.00;;;;;;1594472;73;706;-78
2023/11/03 07:30:33;;;;;;;;;;;19.70;54.20;;;;;;1600416;73;1151;-78
2023/11/03 07:32:35;;;;;;;;;;;19.60;54.00;;;;;;1596836;73;655;-77
2023/11/03 07:34:37;;;;;;;;;;;19.70;54.20;;;;;;1593219;73;729;-78
2023/11/03 07:36:39;;;;;;;;;;;19.60;54.00;;;;;;1591827;73;715;-78
2023/11/03 07:38:41;;;;;;;;;;;19.60;54.00;;;;;;1601300;73;710;-77
2023/11/03 07:40:43;;;;;;;;;;;19.60;54.00;;;;;;1601840;72;1128;-76
2023/11/03 07:42:44;;;;;;;;;;;19.60;54.00;;;;;;1599687;72;699;-76
2023/11/03 07:44:46;;;;;;;;;;;19.70;54.20;;;;;;1594431;73;1943;-77
2023/11/03 07:46:51;;;;;;;;;;;19.60;54.00;;;;;;1601598;73;726;-78
2023/11/03 07:48:53;;;;;;;;;;;19.60;54.00;;;;;;1600661;73;806;-79
2023/11/03 07:50:55;;;;;;;;;;;19.90;54.20;;;;;;1592632;73;1502;-77
2023/11/03 07:52:56;;;;;;;;;;;20.00;54.20;;;;;;1589568;73;734;-78
2023/11/03 07:55:01;;;;;;;;;;;19.90;54.20;;;;;;1595347;73;737;-78
2023/11/03 07:57:02;;;;;;;;;;;20.00;54.20;;;;;;1597613;73;970;-78
2023/11/03 07:59:04;;;;;;;;;;;19.60;54.00;;;;;;1598616;73;784;-78
2023/11/03 08:01:06;;;;;;;;;;;19.70;54.20;;;;;;1598913;73;1187;-78
2023/11/03 08:03:07;;;;;;;;;;;19.60;54.00;;;;;;1590294;72;678;-78
2023/11/03 08:05:09;;;;;;;;;;;19.60;54.00;;;;;;1595247;73;1930;-78
2023/11/03 08:07:13;;;;;;;;;;;19.60;54.00;;;;;;1599853;73;705;-77
2023/11/03 08:09:15;;;;;;;;;;;19.60;54.00;;;;;;1606204;73;696;-78
2023/11/03 08:11:17;;;;;;;;;;;19.60;54.00;;;;;;1598309;73;1130;-77
2023/11/03 08:13:22;;;;;;;;;;;19.60;54.00;;;;;;1605620;73;752;-78
2023/11/03 08:15:23;;;;;;;;;;;19.60;54.00;;;;;;1600744;73;1508;-74
2023/11/03 08:17:25;;;;;;;;;;;19.60;54.00;;;;;;1602433;72;790;-76
2023/11/03 08:19:27;;;;;;;;;;;19.60;54.00;;;;;;1601919;73;669;-76
2023/11/03 08:21:30;;;;;;;;;;;20.00;54.20;;;;;;1601932;72;1088;-76
2023/11/03 08:23:34;;;;;;;;;;;19.70;54.20;;;;;;1599073;72;720;-76
2023/11/03 08:25:36;;;;;;;;;;;19.70;54.20;;;;;;1601504;72;1922;-77
2023/11/03 08:27:37;;;;;;;;;;;20.00;54.20;;;;;;1601729;73;735;-76
2023/11/03 08:29:39;;;;;;;;;;;19.60;54.00;;;;;;1595323;73;1145;-77
2023/11/03 08:31:42;;;;;;;;;;;19.60;54.00;;;;;;1589765;73;719;-76
2023/11/03 08:33:44;;;;;;;;;;;19.60;54.00;;;;;;1606181;73;751;-77
2023/11/03 08:35:48;;;;;;;;;;;19.60;54.00;;;;;;1587573;73;772;-76
2023/11/03 08:37:52;;;;;;;;;;;20.10;54.40;;;;;;1595616;73;1536;-75
2023/11/03 08:39:54;;;;;;;;;;;19.70;54.10;;;;;;1594699;73;1169;-76
2023/11/03 08:41:56;;;;;;;;;;;19.60;54.00;;;;;;1605088;72;683;-76
2023/11/03 08:43:58;;;;;;;;;;;19.70;54.10;;;;;;1592715;73;1930;-76
2023/11/03 08:46:00;;;;;;;;;;;19.60;54.00;;;;;;1593400;73;732;-75
2023/11/03 08:48:01;;;;;;;;;;;19.60;53.90;;;;;;1597290;72;1523;-74
2023/11/03 08:50:03;;;;;;;;;;;19.70;54.10;;;;;;1593786;73;1102;-75
2023/11/03 08:52:07;;;;;;;;;;;19.70;54.10;;;;;;1597737;73;692;-76
2023/11/03 08:54:10;;;;;;;;;;;19.60;53.90;;;;;;1602694;73;680;-76
2023/11/03 08:56:16;;;;;;;;;;;19.60;54.00;;;;;;1591298;73;826;-76
2023/11/03 08:58:15;;;;;;;;;;;19.60;53.90;;;;;;1590159;72;864;-76
2023/11/03 09:00:19;;;;;;;;;;;19.60;53.90;;;;;;1591155;73;1169;-76
2023/11/03 09:02:21;;;;;;;;;;;19.60;53.90;;;;;;1585871;73;707;-75
2023/11/03 09:04:23;;;;;;;;;;;19.60;53.90;;;;;;1598638;73;1918;-76
2023/11/03 09:06:25;;;;;;;;;;;19.60;53.90;;;;;;1601030;73;621;-75
2023/11/03 09:08:27;;;;;;;;;;;19.60;53.90;;;;;;1598049;72;731;-76
2023/11/03 09:10:31;;;;;;;;;;;20.10;54.20;;;;;;1601455;73;1117;-76
2023/11/03 09:12:51;;;;;;;;;;;19.60;53.90;;;;;;1593862;73;1091;-76
2023/11/03 09:14:53;;;;;;;;;;;19.70;54.10;;;;;;1633494;72;662;-63
2023/11/03 09:16:55;;;;;;;;;;;19.70;54.10;;;;;;1623474;72;787;-63
2023/11/03 09:18:58;;;;;;;;;;;19.70;54.00;;;;;;1628267;71;761;-63
2023/11/03 09:21:00;;;;;;;;;;;19.60;53.90;;;;;;1628846;72;788;-64
2023/11/03 09:23:02;;;;;;;;;;;19.60;53.90;;;;;;1606357;72;1164;-65
2023/11/03 09:25:05;;;;;;;;;;;19.70;54.10;;;;;;1606654;72;1934;-64
2023/11/03 09:27:07;;;;;;;;;;;19.60;53.90;;;;;;1601508;72;720;-64
2023/11/03 09:29:09;;;;;;;;;;;19.60;53.90;;;;;;1598264;72;712;-64
2023/11/03 09:31:11;;;;;;;;;;;19.70;54.10;;;;;;1603515;72;1099;-64
2023/11/03 09:33:13;;;;;;;;;;;19.70;54.00;;;;;;1600730;72;724;-64
2023/11/03 09:35:15;;;;;;;;;;;19.60;53.90;;;;;;1604178;72;793;-64
2023/11/03 09:37:17;;;;;;;;;;;19.60;53.90;;;;;;1603074;72;692;-64
2023/11/03 09:39:19;;;;;;;;;;;19.60;53.90;;;;;;1602329;72;773;-65
2023/11/03 09:41:21;;;;;;;;;;;19.70;54.10;;;;;;1603436;72;1099;-64
2023/11/03 09:43:22;;;;;;;;;;;19.70;54.00;;;;;;1596330;72;1557;-65
2023/11/03 09:45:27;;;;;;;;;;;19.70;54.00;;;;;;1604791;72;1940;-64
2023/11/03 09:47:28;;;;;;;;;;;19.60;53.90;;;;;;1598253;72;1492;-64
2023/11/03 09:49:30;;;;;;;;;;;19.60;53.90;;;;;;1589470;72;649;-65
2023/11/03 09:51:33;;;;;;;;;;;19.70;54.00;;;;;;1601728;72;1138;-64
2023/11/03 09:53:36;;;;;;;;;;;19.70;54.10;;;;;;1600826;73;769;-64
2023/11/03 09:55:41;;;;;;;;;;;19.70;54.10;;;;;;1599900;72;741;-65
2023/11/03 09:57:42;;;;;;;;;;;19.60;54.00;;;;;;1603277;72;1620;-64
2023/11/03 09:59:44;;;;;;;;;;;19.70;54.10;;;;;;1600520;72;782;-65
2023/11/03 10:01:45;;;;;;;;;;;19.70;54.10;;;;;;1591860;72;1186;-64
2023/11/03 10:03:47;;;;;;;;;;;19.70;54.10;;;;;;1602763;72;726;-64
2023/11/03 10:05:49;;;;;;;;;;;19.70;54.10;;;;;;1604320;72;1932;-65
2023/11/03 10:07:57;;;;;;;;;;;19.60;54.00;;;;;;1595660;72;678;-64
2023/11/03 10:09:59;;;;;;;;;;;19.60;53.90;;;;;;1569980;74;714;-65
2023/11/03 10:12:03;;;;;;;;;;;20.10;54.30;;;;;;1570114;74;1149;-65
2023/11/03 10:14:05;;;;;;;;;;;19.70;54.10;;;;;;1604888;72;1399;-64
2023/11/03 10:16:08;;;;;;;;;;;19.70;54.10;;;;;;1606022;72;661;-64
2023/11/03 10:18:10;;;;;;;;;;;19.70;54.00;;;;;;1609976;72;779;-64
2023/11/03 10:20:12;;;;;;;;;;;19.60;53.90;;;;;;1600424;72;737;-64
2023/11/03 10:22:14;;;;;;;;;;;19.70;54.10;;;;;;1601093;72;1171;-64
2023/11/03 10:24:16;;;;;;;;;;;19.60;54.00;;;;;;1602657;72;693;-64
2023/11/03 10:26:17;;;;;;;;;;;19.60;54.00;;;;;;1594426;73;1926;-64
2023/11/03 10:28:19;;;;;;;;;;;19.70;54.10;;;;;;1602935;72;808;-64
2023/11/03 10:30:21;;;;;;;;;;;19.60;53.90;;;;;;1601015;72;755;-64
2023/11/03 10:32:23;;;;;;;;;;;19.70;54.10;;;;;;1602603;73;1120;-65
2023/11/03 10:34:25;;;;;;;;;;;19.70;54.10;;;;;;1562457;74;812;-64
2023/11/03 10:36:28;;;;;;;;;;;19.70;54.10;;;;;;1604603;72;650;-64
2023/11/03 10:38:30;;;;;;;;;;;19.70;54.10;;;;;;1609879;72;902;-64
2023/11/03 10:40:32;;;;;;;;;;;19.70;54.00;;;;;;1605950;73;1455;-64
2023/11/03 10:42:35;;;;;;;;;;;19.70;54.00;;;;;;1602990;72;1124;-64
2023/11/03 10:44:37;;;;;;;;;;;19.70;54.00;;;;;;1604425;72;1932;-64
2023/11/03 10:46:39;;;;;;;;;;;19.70;54.00;;;;;;1598434;72;806;-64
2023/11/03 10:48:42;;;;;;;;;;;19.70;54.10;;;;;;1596923;72;787;-64
2023/11/03 10:51:01;;;;;;;;;;;19.60;53.90;;;;;;1600264;72;743;-64
2023/11/03 10:53:04;;;;;;;;;;;19.60;53.90;;;;;;1604767;72;1879;-64
2023/11/03 10:55:11;;;;;;;;;;;19.70;54.00;;;;;;1604565;73;749;-64
2023/11/03 10:57:12;;;;;;;;;;;19.70;54.00;;;;;;1591252;72;775;-64
2023/11/03 10:59:14;;;;;;;;;;;19.60;53.90;;;;;;1599152;72;732;-64
2023/11/03 11:01:33;;;;;;;;;;;19.70;54.00;;;;;;1601706;72;1183;-64
2023/11/03 11:03:36;;;;;;;;;;;19.60;53.90;;;;;;1607257;72;736;-64
2023/11/03 11:05:40;;;;;;;;;;;19.70;54.10;;;;;;1607257;72;1940;-64
2023/11/03 11:07:44;;;;;;;;;;;19.70;54.10;;;;;;1600424;72;1415;-64
2023/11/03 11:09:46;;;;;;;;;;;19.60;53.90;;;;;;1596135;72;799;-64
2023/11/03 11:11:48;;;;;;;;;;;19.70;54.10;;;;;;1603723;72;1115;-65
2023/11/03 11:13:50;;;;;;;;;;;19.70;54.00;;;;;;1599637;72;904;-64
2023/11/03 11:15:53;;;;;;;;;;;19.70;54.00;;;;;;1569100;74;814;-64
2023/11/03 11:17:55;;;;;;;;;;;19.70;54.00;;;;;;1586719;72;1274;-64
2023/11/03 11:19:57;;;;;;;;;;;19.70;54.00;;;;;;1566927;74;1178;-64
2023/11/03 11:22:00;;;;;;;;;;;19.60;53.90;;;;;;1604003;72;1145;-64
2023/11/03 11:24:02;;;;;;;;;;;19.70;54.00;;;;;;1610896;72;744;-64
2023/11/03 11:26:04;;;;;;;;;;;19.70;54.00;;;;;;1599126;72;1936;-64
2023/11/03 11:28:08;;;;;;;;;;;19.70;54.00;;;;;;1573947;74;1178;-64
2023/11/03 11:30:14;;;;;;;;;;;19.60;53.90;;;;;;1601969;72;1683;-65
2023/11/03 11:32:17;;;;;;;;;;;19.60;53.90;;;;;;1604199;72;1176;-64
2023/11/03 11:34:19;;;;;;;;;;;19.70;54.00;;;;;;1603068;72;730;-64
2023/11/03 11:36:21;;;;;;;;;;;19.70;54.00;;;;;;1605455;72;1527;-64
2023/11/03 11:38:26;;;;;;;;;;;19.60;53.80;;;;;;1603296;72;671;-65
2023/11/03 11:40:28;;;;;;;;;;;19.60;53.80;;;;;;1604637;72;855;-64
2023/11/03 11:42:31;;;;;;;;;;;19.60;53.90;;;;;;1596527;73;1106;-64
2023/11/03 11:44:33;;;;;;;;;;;19.60;53.80;;;;;;1609174;72;791;-64
2023/11/03 11:46:35;;;;;;;;;;;19.60;53.80;;;;;;1597600;72;1911;-64
2023/11/03 11:48:37;;;;;;;;;;;19.70;53.90;;;;;;1600792;72;801;-64
2023/11/03 11:50:40;;;;;;;;;;;19.60;53.80;;;;;;1604395;72;716;-64
2023/11/03 11:52:48;;;;;;;;;;;19.70;54.00;;;;;;1607462;72;1130;-64
2023/11/03 11:54:51;;;;;;;;;;;19.60;53.80;;;;;;1605387;72;943;-64
2023/11/03 11:56:53;;;;;;;;;;;19.60;53.90;;;;;;1604728;72;722;-65
2023/11/03 11:58:55;;;;;;;;;;;19.70;54.00;;;;;;1603759;72;674;-64
2023/11/03 12:00:57;;;;;;;;;;;19.60;53.80;;;;;;1600170;72;731;-64
2023/11/03 12:02:59;;;;;;;;;;;19.70;53.90;;;;;;1604853;72;1149;-64
2023/11/03 12:05:01;;;;;;;;;;;19.60;53.80;;;;;;1595561;72;1938;-64
2023/11/03 12:07:03;;;;;;;;;;;19.60;53.80;;;;;;1607365;72;810;-64
2023/11/03 12:09:05;;;;;;;;;;;19.60;53.80;;;;;;1598389;72;805;-64